Time;durP1;ratioP1;P1;durP2;ratioP2;P2;SDS_P1;SDS_P2;PMS_P1;PMS_P2;Temp;Humidity;BMP_temperature;BMP_pressure;BME280_temperature;BME280_humidity;BME280_pressure;Samples;Min_cycle;Max_cycle;Signal;HPM_P1;HPM_P2
2023/04/24 00:01:59;;;;;;;3.93;3.73;;;;;;;;;;5094914;28;20451;-60
2023/04/24 00:04:26;;;;;;;4.40;4.10;;;;;;;;;;5094954;28;20479;-61
2023/04/24 00:06:56;;;;;;;5.00;4.60;;;;;;;;;;5094988;28;20455;-60
2023/04/24 00:09:23;;;;;;;4.90;4.43;;;;;;;;;;5094914;28;20451;-60
2023/04/24 00:11:52;;;;;;;4.97;4.57;;;;;;;;;;5094799;28;20479;-59
2023/04/24 00:14:19;;;;;;;5.20;4.90;;;;;;;;;;5094608;28;20817;-60
2023/04/24 00:16:46;;;;;;;4.30;4.00;;;;;;;;;;5094800;28;20882;-60
2023/04/24 00:19:13;;;;;;;5.53;5.03;;;;;;;;;;5094724;28;20443;-60
2023/04/24 00:21:40;;;;;;;4.90;4.50;;;;;;;;;;5094702;28;20541;-60
2023/04/24 00:24:08;;;;;;;5.00;4.60;;;;;;;;;;5094549;28;20506;-60
2023/04/24 00:26:35;;;;;;;4.43;4.10;;;;;;;;;;5094514;28;20451;-60
2023/04/24 00:29:04;;;;;;;4.37;4.03;;;;;;;;;;5094332;28;20461;-60
2023/04/24 00:31:31;;;;;;;4.43;4.20;;;;;;;;;;5094518;28;20893;-60
2023/04/24 00:33:57;;;;;;;5.03;4.60;;;;;;;;;;5094484;28;20486;-60
2023/04/24 00:36:24;;;;;;;4.70;4.33;;;;;;;;;;5094689;28;20457;-60
2023/04/24 00:38:51;;;;;;;4.83;4.50;;;;;;;;;;5094378;28;20534;-60
2023/04/24 00:41:18;;;;;;;4.57;4.27;;;;;;;;;;5094177;28;20447;-60
2023/04/24 00:43:46;;;;;;;4.27;3.97;;;;;;;;;;5094025;28;20485;-60
2023/04/24 00:46:14;;;;;;;4.53;4.20;;;;;;;;;;5093165;28;20485;-60
2023/04/24 00:48:41;;;;;;;9.23;4.90;;;;;;;;;;5094165;28;20600;-60
2023/04/24 00:51:08;;;;;;;5.60;4.80;;;;;;;;;;5094062;28;20802;-60
2023/04/24 00:53:35;;;;;;;4.77;4.37;;;;;;;;;;5093870;28;20829;-60
2023/04/24 00:56:02;;;;;;;4.80;4.43;;;;;;;;;;5093858;28;20810;-60
2023/04/24 00:58:30;;;;;;;5.40;5.00;;;;;;;;;;5094106;28;20922;-60
2023/04/24 01:00:57;;;;;;;5.27;4.87;;;;;;;;;;5094004;28;20553;-60
2023/04/24 01:03:27;;;;;;;5.60;5.10;;;;;;;;;;5093981;28;20848;-59
2023/04/24 01:05:55;;;;;;;5.50;5.00;;;;;;;;;;5093693;28;21001;-59
2023/04/24 01:08:24;;;;;;;4.20;3.90;;;;;;;;;;5093656;28;20458;-60
2023/04/24 01:10:52;;;;;;;4.70;4.40;;;;;;;;;;5093869;28;20448;-60
2023/04/24 01:13:19;;;;;;;4.67;4.37;;;;;;;;;;5093695;28;20453;-60
2023/04/24 01:15:46;;;;;;;5.00;4.70;;;;;;;;;;5093590;28;20876;-60
2023/04/24 01:18:13;;;;;;;5.23;4.83;;;;;;;;;;5093408;28;20949;-59
2023/04/24 01:20:43;;;;;;;5.33;4.93;;;;;;;;;;5093368;28;20451;-59
2023/04/24 01:23:11;;;;;;;5.10;4.60;;;;;;;;;;5093445;28;20856;-60
2023/04/24 01:25:39;;;;;;;5.17;4.73;;;;;;;;;;5093453;28;20482;-60
2023/04/24 01:28:06;;;;;;;5.20;4.80;;;;;;;;;;5093528;28;20545;-60
2023/04/24 01:30:33;;;;;;;4.80;4.50;;;;;;;;;;5093421;28;20526;-59
2023/04/24 01:33:00;;;;;;;5.43;5.03;;;;;;;;;;5093378;28;20906;-59
2023/04/24 01:35:28;;;;;;;4.63;4.33;;;;;;;;;;5093205;28;20451;-60
2023/04/24 01:37:55;;;;;;;4.93;4.57;;;;;;;;;;5093210;28;20861;-60
2023/04/24 01:40:23;;;;;;;5.10;4.70;;;;;;;;;;5093485;28;20942;-60
2023/04/24 01:42:50;;;;;;;4.83;4.50;;;;;;;;;;5093431;28;20884;-60
2023/04/24 01:45:17;;;;;;;5.50;5.10;;;;;;;;;;5093235;28;20489;-60
2023/04/24 01:47:44;;;;;;;6.13;4.60;;;;;;;;;;5093050;28;20920;-60
2023/04/24 01:50:11;;;;;;;5.17;4.83;;;;;;;;;;5093313;28;20465;-60
2023/04/24 01:52:38;;;;;;;5.07;4.67;;;;;;;;;;5093527;28;20538;-59
2023/04/24 01:55:06;;;;;;;6.47;5.70;;;;;;;;;;5092777;28;20467;-60
2023/04/24 01:57:35;;;;;;;5.53;5.03;;;;;;;;;;5092734;28;20442;-60
2023/04/24 02:00:03;;;;;;;5.80;5.30;;;;;;;;;;5093368;28;20443;-60
2023/04/24 02:02:30;;;;;;;5.00;4.70;;;;;;;;;;5092879;28;20443;-60
2023/04/24 02:04:57;;;;;;;5.40;5.00;;;;;;;;;;5093024;28;20562;-60
2023/04/24 02:07:24;;;;;;;5.90;5.40;;;;;;;;;;5092994;28;20451;-60
2023/04/24 02:09:51;;;;;;;6.27;5.77;;;;;;;;;;5093018;28;20453;-60
2023/04/24 02:12:18;;;;;;;5.43;5.03;;;;;;;;;;5092669;28;20451;-59
2023/04/24 02:14:47;;;;;;;5.70;5.30;;;;;;;;;;5092741;28;20505;-60
2023/04/24 02:17:15;;;;;;;5.07;4.77;;;;;;;;;;5092667;28;20544;-60
2023/04/24 02:19:42;;;;;;;5.90;5.30;;;;;;;;;;5092925;28;20805;-59
2023/04/24 02:22:10;;;;;;;5.37;5.07;;;;;;;;;;5092679;28;20854;-60
2023/04/24 02:24:37;;;;;;;6.10;5.67;;;;;;;;;;5092717;28;20557;-59
2023/04/24 02:27:04;;;;;;;6.07;5.57;;;;;;;;;;5092819;28;20452;-59
2023/04/24 02:29:31;;;;;;;6.07;5.57;;;;;;;;;;5092713;28;20443;-60
2023/04/24 02:32:00;;;;;;;7.60;5.60;;;;;;;;;;5092581;28;20447;-59
2023/04/24 02:34:26;;;;;;;5.73;5.33;;;;;;;;;;5092779;28;20453;-59
2023/04/24 02:36:54;;;;;;;5.40;5.03;;;;;;;;;;5092818;28;20446;-60
2023/04/24 02:39:21;;;;;;;5.57;5.17;;;;;;;;;;5092652;28;20446;-60
2023/04/24 02:41:48;;;;;;;5.87;5.40;;;;;;;;;;5092561;28;20456;-60
2023/04/24 02:44:17;;;;;;;6.00;5.50;;;;;;;;;;5092474;28;20443;-60
2023/04/24 02:46:44;;;;;;;6.20;5.10;;;;;;;;;;5092673;28;20985;-60
2023/04/24 02:49:12;;;;;;;5.70;5.20;;;;;;;;;;5092685;28;20446;-60
2023/04/24 02:51:40;;;;;;;5.60;5.10;;;;;;;;;;5092563;28;20454;-60
2023/04/24 02:54:07;;;;;;;8.33;6.07;;;;;;;;;;5092334;28;20872;-60
2023/04/24 02:56:34;;;;;;;5.70;5.30;;;;;;;;;;5092435;28;20457;-60
2023/04/24 02:59:01;;;;;;;6.87;4.53;;;;;;;;;;5092297;28;20883;-60
2023/04/24 03:01:28;;;;;;;6.10;5.57;;;;;;;;;;5092546;28;20443;-60
2023/04/24 03:03:55;;;;;;;5.80;5.30;;;;;;;;;;5092662;28;20541;-60
2023/04/24 03:06:23;;;;;;;5.10;4.80;;;;;;;;;;5092187;28;20986;-60
2023/04/24 03:08:50;;;;;;;5.30;4.90;;;;;;;;;;5092984;28;20815;-59
2023/04/24 03:11:17;;;;;;;6.40;4.93;;;;;;;;;;5096000;28;20458;-60
2023/04/24 03:13:44;;;;;;;4.60;4.20;;;;;;;;;;5096000;28;20531;-60
2023/04/24 03:16:11;;;;;;;5.30;4.90;;;;;;;;;;5096186;28;20447;-60
2023/04/24 03:18:38;;;;;;;4.80;4.50;;;;;;;;;;5096327;28;20451;-60
2023/04/24 03:21:05;;;;;;;4.90;4.50;;;;;;;;;;5096018;28;20456;-60
2023/04/24 03:23:33;;;;;;;5.33;4.93;;;;;;;;;;5095837;28;20497;-60
2023/04/24 03:26:00;;;;;;;4.90;4.60;;;;;;;;;;5095607;28;20478;-60
2023/04/24 03:28:27;;;;;;;5.23;4.83;;;;;;;;;;5095955;28;20449;-60
2023/04/24 03:30:54;;;;;;;5.00;4.60;;;;;;;;;;5095821;28;20484;-60
2023/04/24 03:33:21;;;;;;;4.40;4.10;;;;;;;;;;5095750;28;20538;-60
2023/04/24 03:35:48;;;;;;;5.57;5.00;;;;;;;;;;5095562;28;20729;-60
2023/04/24 03:38:15;;;;;;;5.53;5.17;;;;;;;;;;5095578;28;20446;-60
2023/04/24 03:40:43;;;;;;;5.90;5.57;;;;;;;;;;5095328;28;20442;-60
2023/04/24 03:43:10;;;;;;;4.83;4.33;;;;;;;;;;5095641;28;20449;-60
2023/04/24 03:45:37;;;;;;;6.17;5.67;;;;;;;;;;5095358;28;20477;-60
2023/04/24 03:48:04;;;;;;;5.70;5.20;;;;;;;;;;5095567;28;20447;-60
2023/04/24 03:50:31;;;;;;;5.70;5.33;;;;;;;;;;5095320;28;20447;-60
2023/04/24 03:52:58;;;;;;;5.93;5.23;;;;;;;;;;5095034;28;20483;-60
2023/04/24 03:55:25;;;;;;;5.77;5.30;;;;;;;;;;5095467;28;20457;-60
2023/04/24 03:57:53;;;;;;;5.63;4.40;;;;;;;;;;5095319;28;20456;-60
2023/04/24 04:00:20;;;;;;;5.27;4.80;;;;;;;;;;5095265;28;20453;-60
2023/04/24 04:02:47;;;;;;;6.13;5.50;;;;;;;;;;5095125;28;20448;-60
2023/04/24 04:05:14;;;;;;;5.07;4.60;;;;;;;;;;5095118;28;20996;-60
2023/04/24 04:07:41;;;;;;;4.73;4.43;;;;;;;;;;5094846;28;20447;-60
2023/04/24 04:10:09;;;;;;;4.73;4.43;;;;;;;;;;5095123;28;20447;-60
2023/04/24 04:12:36;;;;;;;9.50;5.20;;;;;;;;;;5094998;28;20926;-60
2023/04/24 04:15:05;;;;;;;5.77;5.27;;;;;;;;;;5094989;28;20574;-60
2023/04/24 04:17:32;;;;;;;5.87;5.37;;;;;;;;;;5094868;28;20451;-60
2023/04/24 04:19:59;;;;;;;5.60;5.10;;;;;;;;;;5094689;28;20454;-61
2023/04/24 04:22:26;;;;;;;6.63;6.10;;;;;;;;;;5094676;28;20447;-60
2023/04/24 04:24:53;;;;;;;6.23;5.73;;;;;;;;;;5094817;28;20457;-60
2023/04/24 04:27:21;;;;;;;9.33;5.40;;;;;;;;;;5095192;28;20772;-59
2023/04/24 04:29:48;;;;;;;5.50;4.90;;;;;;;;;;5094915;28;20530;-59
2023/04/24 04:32:16;;;;;;;4.63;4.23;;;;;;;;;;5094525;28;20811;-60
2023/04/24 04:34:45;;;;;;;5.80;5.40;;;;;;;;;;5094363;28;20451;-60
2023/04/24 04:37:12;;;;;;;5.93;5.43;;;;;;;;;;5094559;28;20496;-60
2023/04/24 04:39:39;;;;;;;7.80;5.73;;;;;;;;;;5094170;28;20941;-60
2023/04/24 04:42:07;;;;;;;5.27;4.87;;;;;;;;;;5094458;28;20483;-60
2023/04/24 04:44:35;;;;;;;6.07;5.47;;;;;;;;;;5094262;28;20827;-60
2023/04/24 04:47:05;;;;;;;7.00;5.00;;;;;;;;;;5094144;28;21039;-60
2023/04/24 04:49:33;;;;;;;5.40;5.00;;;;;;;;;;5094056;28;20443;-60
2023/04/24 04:52:00;;;;;;;5.57;5.10;;;;;;;;;;5094157;28;20811;-60
2023/04/24 04:54:27;;;;;;;5.90;5.40;;;;;;;;;;5093921;28;20570;-60
2023/04/24 04:56:55;;;;;;;8.27;5.30;;;;;;;;;;5094002;28;20448;-60
2023/04/24 04:59:22;;;;;;;5.30;4.80;;;;;;;;;;5093930;28;20534;-60
2023/04/24 05:01:49;;;;;;;8.57;4.87;;;;;;;;;;5094614;28;20454;-60
2023/04/24 05:04:16;;;;;;;5.07;4.77;;;;;;;;;;5094011;28;20475;-60
2023/04/24 05:06:44;;;;;;;5.60;5.10;;;;;;;;;;5093818;28;20483;-60
2023/04/24 05:09:11;;;;;;;4.97;4.53;;;;;;;;;;5093801;28;20446;-60
2023/04/24 05:11:39;;;;;;;4.73;4.17;;;;;;;;;;5093762;28;20450;-60
2023/04/24 05:14:06;;;;;;;5.13;4.57;;;;;;;;;;5094241;28;20973;-60
2023/04/24 05:16:32;;;;;;;5.20;4.70;;;;;;;;;;5093555;28;20447;-60
2023/04/24 05:18:59;;;;;;;4.67;4.30;;;;;;;;;;5093689;28;20453;-60
2023/04/24 05:21:26;;;;;;;5.70;4.97;;;;;;;;;;5093657;28;20530;-60
2023/04/24 05:23:55;;;;;;;5.43;5.03;;;;;;;;;;5093478;28;20448;-60
2023/04/24 05:26:22;;;;;;;4.93;4.57;;;;;;;;;;5093285;28;20555;-60
2023/04/24 05:28:49;;;;;;;4.43;4.13;;;;;;;;;;5093235;28;20455;-60
2023/04/24 05:31:17;;;;;;;4.47;3.83;;;;;;;;;;5092929;28;20475;-60
2023/04/24 05:33:44;;;;;;;4.13;3.83;;;;;;;;;;5093419;28;20452;-60
2023/04/24 05:36:11;;;;;;;6.60;4.47;;;;;;;;;;5093310;28;20443;-60
2023/04/24 05:38:38;;;;;;;3.73;3.53;;;;;;;;;;5093265;28;20538;-60
2023/04/24 05:41:06;;;;;;;4.07;3.77;;;;;;;;;;5093194;28;20491;-60
2023/04/24 05:43:33;;;;;;;3.17;2.97;;;;;;;;;;5093150;28;20936;-60
2023/04/24 05:46:00;;;;;;;5.30;3.17;;;;;;;;;;5093143;28;20534;-60
2023/04/24 05:48:27;;;;;;;3.20;3.00;;;;;;;;;;5093130;28;20447;-60
2023/04/24 05:50:54;;;;;;;5.57;3.47;;;;;;;;;;5093082;28;20455;-60
2023/04/24 05:53:21;;;;;;;3.10;2.73;;;;;;;;;;5092902;28;20514;-60
2023/04/24 05:55:49;;;;;;;2.97;2.70;;;;;;;;;;5092875;28;20451;-60
2023/04/24 05:58:17;;;;;;;3.93;2.43;;;;;;;;;;5092679;28;20807;-60
2023/04/24 06:00:46;;;;;;;2.60;2.40;;;;;;;;;;5092933;28;20482;-60
2023/04/24 06:03:13;;;;;;;5.67;2.20;;;;;;;;;;5092818;28;20447;-60
2023/04/24 06:05:40;;;;;;;2.33;2.10;;;;;;;;;;5092844;28;20523;-60
2023/04/24 06:08:07;;;;;;;6.23;3.03;;;;;;;;;;5092764;28;20448;-60
2023/04/24 06:10:34;;;;;;;2.70;2.50;;;;;;;;;;5092613;28;20459;-60
2023/04/24 06:13:01;;;;;;;4.30;2.33;;;;;;;;;;5092929;28;20535;-60
2023/04/24 06:15:30;;;;;;;3.23;1.90;;;;;;;;;;5092915;28;20874;-60
2023/04/24 06:17:57;;;;;;;1.97;1.87;;;;;;;;;;5092823;28;20817;-60
2023/04/24 06:20:24;;;;;;;2.17;1.97;;;;;;;;;;5092644;28;20792;-60
2023/04/24 06:22:51;;;;;;;1.80;1.53;;;;;;;;;;5092705;28;20541;-60
2023/04/24 06:25:19;;;;;;;1.80;1.70;;;;;;;;;;5092517;28;20543;-60
2023/04/24 06:27:46;;;;;;;1.87;1.77;;;;;;;;;;5092635;28;20574;-61
2023/04/24 06:30:13;;;;;;;1.97;1.80;;;;;;;;;;5092637;28;20450;-60
2023/04/24 06:32:41;;;;;;;1.83;1.60;;;;;;;;;;5092571;28;20478;-60
2023/04/24 06:35:09;;;;;;;1.60;1.50;;;;;;;;;;5092601;28;20443;-60
2023/04/24 06:37:36;;;;;;;1.80;1.70;;;;;;;;;;5088277;28;20454;-60
2023/04/24 06:40:04;;;;;;;1.53;1.43;;;;;;;;;;5091969;28;20443;-60
2023/04/24 06:42:31;;;;;;;1.50;1.40;;;;;;;;;;5092462;28;20459;-60
2023/04/24 06:44:58;;;;;;;1.80;1.53;;;;;;;;;;5091470;28;20528;-60
2023/04/24 06:47:24;;;;;;;2.10;1.77;;;;;;;;;;5093253;28;20483;-60
2023/04/24 06:49:53;;;;;;;1.43;1.33;;;;;;;;;;5096200;28;20794;-60
2023/04/24 06:52:20;;;;;;;2.07;1.50;;;;;;;;;;5096121;28;20471;-60
2023/04/24 06:54:47;;;;;;;1.93;1.83;;;;;;;;;;5096065;28;20872;-60
2023/04/24 06:57:15;;;;;;;2.50;1.67;;;;;;;;;;5096235;28;20472;-60
2023/04/24 06:59:42;;;;;;;1.77;1.67;;;;;;;;;;5096092;28;20441;-60
2023/04/24 07:02:09;;;;;;;1.40;1.30;;;;;;;;;;5096040;28;20473;-60
2023/04/24 07:04:36;;;;;;;2.40;1.43;;;;;;;;;;5096398;28;20536;-61
2023/04/24 07:07:06;;;;;;;2.23;1.30;;;;;;;;;;5095916;28;20481;-60
2023/04/24 07:09:35;;;;;;;1.87;1.10;;;;;;;;;;5095825;28;20958;-59
2023/04/24 07:12:02;;;;;;;1.50;1.37;;;;;;;;;;5095827;28;20499;-59
2023/04/24 07:14:29;;;;;;;2.67;1.23;;;;;;;;;;5095836;28;20807;-60
2023/04/24 07:16:56;;;;;;;1.60;0.97;;;;;;;;;;5095707;28;20544;-60
2023/04/24 07:19:23;;;;;;;1.30;1.20;;;;;;;;;;5095819;28;20486;-63
2023/04/24 07:21:50;;;;;;;1.10;1.00;;;;;;;;;;5095793;28;20444;-60
2023/04/24 07:24:19;;;;;;;2.40;1.10;;;;;;;;;;5095870;28;20626;-62
2023/04/24 07:26:46;;;;;;;1.10;1.00;;;;;;;;;;5095494;28;20506;-64
2023/04/24 07:29:13;;;;;;;1.97;1.00;;;;;;;;;;5095538;28;20510;-60
2023/04/24 07:31:40;;;;;;;2.53;1.20;;;;;;;;;;5095387;28;20537;-61
2023/04/24 07:34:07;;;;;;;1.03;0.93;;;;;;;;;;5095361;28;20488;-59
2023/04/24 07:36:34;;;;;;;1.63;1.30;;;;;;;;;;5095385;28;20517;-62
2023/04/24 07:39:02;;;;;;;0.80;0.80;;;;;;;;;;5095428;28;20451;-61
2023/04/24 07:41:30;;;;;;;1.07;0.97;;;;;;;;;;5095127;28;20453;-60
2023/04/24 07:43:57;;;;;;;6.17;1.40;;;;;;;;;;5095107;28;20489;-60
2023/04/24 07:46:24;;;;;;;1.37;1.27;;;;;;;;;;5094927;28;20825;-59
2023/04/24 07:48:51;;;;;;;1.73;1.10;;;;;;;;;;5095302;28;20453;-59
2023/04/24 07:51:18;;;;;;;1.57;1.20;;;;;;;;;;5095200;28;20542;-61
2023/04/24 07:53:45;;;;;;;1.50;0.80;;;;;;;;;;5095044;28;20566;-60
2023/04/24 07:56:12;;;;;;;1.00;0.90;;;;;;;;;;5082316;28;20451;-60
2023/04/24 07:58:41;;;;;;;1.13;1.00;;;;;;;;;;5074701;28;20899;-60
2023/04/24 08:01:08;;;;;;;1.10;1.00;;;;;;;;;;5074612;28;20442;-60
2023/04/24 08:03:35;;;;;;;4.63;1.17;;;;;;;;;;5074851;28;20567;-60
2023/04/24 08:06:02;;;;;;;3.23;1.10;;;;;;;;;;5074744;28;20500;-61
2023/04/24 08:08:29;;;;;;;1.20;1.10;;;;;;;;;;5074641;28;20443;-59
2023/04/24 08:10:56;;;;;;;1.53;0.80;;;;;;;;;;5074548;28;20537;-64
2023/04/24 08:13:23;;;;;;;2.13;1.33;;;;;;;;;;5074347;28;20534;-61
2023/04/24 08:15:52;;;;;;;1.00;0.90;;;;;;;;;;5074354;28;20812;-64
2023/04/24 08:18:18;;;;;;;1.10;1.00;;;;;;;;;;5074347;28;20498;-64
2023/04/24 08:20:45;;;;;;;1.37;0.97;;;;;;;;;;5074504;28;20461;-63
2023/04/24 08:23:12;;;;;;;0.73;0.73;;;;;;;;;;5074311;28;20451;-64
2023/04/24 08:25:39;;;;;;;1.13;0.90;;;;;;;;;;5074254;28;20450;-66
2023/04/24 08:28:07;;;;;;;0.93;0.93;;;;;;;;;;5074117;28;20489;-64
2023/04/24 08:30:34;;;;;;;1.20;1.10;;;;;;;;;;5073965;28;20482;-64
2023/04/24 08:33:02;;;;;;;5.00;1.03;;;;;;;;;;5074112;28;20546;-63
2023/04/24 08:35:29;;;;;;;3.50;1.60;;;;;;;;;;5074079;28;20456;-61
2023/04/24 08:37:56;;;;;;;1.07;0.97;;;;;;;;;;5074077;28;20459;-62
2023/04/24 08:40:24;;;;;;;0.80;0.80;;;;;;;;;;5073905;28;20460;-62
2023/04/24 08:42:52;;;;;;;3.17;0.90;;;;;;;;;;5073845;28;20784;-62
2023/04/24 08:45:19;;;;;;;1.70;1.03;;;;;;;;;;5074005;28;20457;-63
2023/04/24 08:47:46;;;;;;;1.83;0.80;;;;;;;;;;5073753;28;20583;-64
2023/04/24 08:50:15;;;;;;;2.40;0.87;;;;;;;;;;5073531;28;20885;-60
2023/04/24 08:52:43;;;;;;;0.80;0.80;;;;;;;;;;5073648;28;20451;-60
2023/04/24 08:55:10;;;;;;;0.90;0.73;;;;;;;;;;5073346;28;20486;-60
2023/04/24 08:57:39;;;;;;;1.20;0.90;;;;;;;;;;5073538;28;20454;-61
2023/04/24 09:00:07;;;;;;;1.30;0.80;;;;;;;;;;5073302;28;20968;-60
2023/04/24 09:02:35;;;;;;;1.07;0.73;;;;;;;;;;5073339;28;20442;-61
2023/04/24 09:05:03;;;;;;;0.80;0.80;;;;;;;;;;5073154;28;20885;-59
2023/04/24 09:07:35;;;;;;;1.73;0.90;;;;;;;;;;5072371;28;20514;-59
2023/04/24 09:10:02;;;;;;;0.80;0.80;;;;;;;;;;5073346;28;20451;-61
2023/04/24 09:12:29;;;;;;;1.53;0.80;;;;;;;;;;5073255;28;20460;-61
2023/04/24 09:14:56;;;;;;;1.20;0.83;;;;;;;;;;5073346;28;20459;-59
2023/04/24 09:17:26;;;;;;;1.17;0.90;;;;;;;;;;5073337;28;20448;-61
2023/04/24 09:19:53;;;;;;;1.30;1.20;;;;;;;;;;5073099;28;20454;-59
2023/04/24 09:22:20;;;;;;;1.00;0.73;;;;;;;;;;5073133;28;20450;-60
2023/04/24 09:24:49;;;;;;;1.00;0.90;;;;;;;;;;5073217;28;20452;-62
2023/04/24 09:27:18;;;;;;;0.97;0.90;;;;;;;;;;5072753;28;20754;-63
2023/04/24 09:29:55;;;;;;;5.90;1.20;;;;;;;;;;5072621;28;20504;-63
2023/04/24 09:32:24;;;;;;;1.53;0.87;;;;;;;;;;5073024;28;20528;-59
2023/04/24 09:34:51;;;;;;;1.63;1.13;;;;;;;;;;5072619;28;20831;-59
2023/04/24 09:37:29;;;;;;;1.77;1.00;;;;;;;;;;5073138;28;20459;-59
2023/04/24 09:40:09;;;;;;;0.70;0.70;;;;;;;;;;5073108;28;20455;-60
2023/04/24 09:42:36;;;;;;;2.40;0.87;;;;;;;;;;5072819;28;20545;-60
2023/04/24 09:45:04;;;;;;;1.30;0.80;;;;;;;;;;5072848;28;20450;-61
2023/04/24 09:47:37;;;;;;;1.20;0.90;;;;;;;;;;5072530;28;20472;-62
2023/04/24 09:50:10;;;;;;;0.90;0.90;;;;;;;;;;5073035;28;20454;-62
2023/04/24 09:52:37;;;;;;;2.03;1.00;;;;;;;;;;5072835;28;21010;-60
2023/04/24 09:55:11;;;;;;;1.10;0.83;;;;;;;;;;5072931;28;20472;-61
2023/04/24 09:57:48;;;;;;;1.30;1.20;;;;;;;;;;5072600;28;21016;-62
2023/04/24 10:00:19;;;;;;;1.70;0.90;;;;;;;;;;5072757;28;20801;-62
2023/04/24 10:02:46;;;;;;;1.23;0.93;;;;;;;;;;5072950;28;20186;-62
2023/04/24 10:05:12;;;;;;;1.10;1.00;;;;;;;;;;5072616;28;20493;-63
2023/04/24 10:07:39;;;;;;;5.13;0.97;;;;;;;;;;5072557;28;20486;-63
2023/04/24 10:10:07;;;;;;;1.10;1.00;;;;;;;;;;5072454;28;20539;-61
2023/04/24 10:12:34;;;;;;;1.10;0.80;;;;;;;;;;5072666;28;20455;-63
2023/04/24 10:15:02;;;;;;;1.13;0.90;;;;;;;;;;5072463;28;20450;-63
2023/04/24 10:17:30;;;;;;;1.00;0.90;;;;;;;;;;5072873;28;20871;-59
2023/04/24 10:19:57;;;;;;;3.00;0.80;;;;;;;;;;5076723;28;20454;-62
2023/04/24 10:22:25;;;;;;;1.00;0.90;;;;;;;;;;5076588;28;20450;-65
2023/04/24 10:24:53;;;;;;;1.03;0.80;;;;;;;;;;5080160;28;20603;-62
2023/04/24 10:27:22;;;;;;;0.87;0.80;;;;;;;;;;5096869;28;20509;-62
2023/04/24 10:29:50;;;;;;;1.60;0.90;;;;;;;;;;5096649;28;20845;-59
2023/04/24 10:32:18;;;;;;;2.13;0.73;;;;;;;;;;5096596;28;20449;-63
2023/04/24 10:34:45;;;;;;;1.53;1.20;;;;;;;;;;5096378;28;20548;-63
2023/04/24 10:37:13;;;;;;;2.15;0.93;;;;;;;;;;5095825;28;20899;-63
2023/04/24 10:39:40;;;;;;;4.67;1.83;;;;;;;;;;5096781;28;20188;-64
2023/04/24 10:42:15;;;;;;;1.00;0.90;;;;;;;;;;5096658;28;20486;-65
2023/04/24 10:44:42;;;;;;;1.40;0.80;;;;;;;;;;5096511;28;20457;-63
2023/04/24 10:47:14;;;;;;;3.03;0.73;;;;;;;;;;5096276;28;20450;-64
2023/04/24 10:49:42;;;;;;;1.57;0.80;;;;;;;;;;5096419;28;20453;-63
2023/04/24 10:52:10;;;;;;;1.83;1.20;;;;;;;;;;5096335;28;20477;-62
2023/04/24 10:54:38;;;;;;;2.30;0.80;;;;;;;;;;5096272;28;20484;-64
2023/04/24 10:57:24;;;;;;;0.80;0.70;;;;;;;;;;5096320;28;20454;-63
2023/04/24 10:59:51;;;;;;;1.90;0.80;;;;;;;;;;5095852;28;20460;-64
2023/04/24 11:02:19;;;;;;;1.40;0.73;;;;;;;;;;5092540;28;20452;-64
2023/04/24 11:04:47;;;;;;;1.13;1.03;;;;;;;;;;5086658;28;20450;-64
2023/04/24 11:07:14;;;;;;;1.60;1.10;;;;;;;;;;5087448;28;20447;-64
2023/04/24 11:09:44;;;;;;;1.90;1.10;;;;;;;;;;5084862;28;20856;-64
2023/04/24 11:12:11;;;;;;;3.47;0.90;;;;;;;;;;5086872;28;20443;-64
2023/04/24 11:14:57;;;;;;;1.13;0.93;;;;;;;;;;5086667;28;20442;-63
2023/04/24 11:17:31;;;;;;;1.00;0.90;;;;;;;;;;5084392;28;20479;-64
2023/04/24 11:20:05;;;;;;;2.70;0.90;;;;;;;;;;5084825;28;20448;-64
2023/04/24 11:22:35;;;;;;;0.80;0.73;;;;;;;;;;5081407;28;20454;-64
2023/04/24 11:25:03;;;;;;;2.27;1.10;;;;;;;;;;5075988;28;20455;-64
2023/04/24 11:27:31;;;;;;;0.80;0.80;;;;;;;;;;5085147;28;20474;-64
2023/04/24 11:30:01;;;;;;;4.43;0.80;;;;;;;;;;5085309;28;20526;-64
2023/04/24 11:32:28;;;;;;;0.70;0.70;;;;;;;;;;5084719;28;20459;-64
2023/04/24 11:34:56;;;;;;;1.50;1.10;;;;;;;;;;5087576;28;20447;-64
2023/04/24 11:37:25;;;;;;;0.80;0.80;;;;;;;;;;5083875;28;20448;-64
2023/04/24 11:39:53;;;;;;;0.80;0.77;;;;;;;;;;5085656;28;20533;-64
2023/04/24 11:42:21;;;;;;;0.80;0.70;;;;;;;;;;5085972;28;20905;-65
2023/04/24 11:44:48;;;;;;;1.53;0.80;;;;;;;;;;5084652;28;20440;-65
2023/04/24 11:47:15;;;;;;;1.10;0.90;;;;;;;;;;5085380;28;20443;-64
2023/04/24 11:49:42;;;;;;;2.23;1.07;;;;;;;;;;5085518;28;20459;-64
2023/04/24 11:52:10;;;;;;;0.80;0.77;;;;;;;;;;5088214;28;20450;-64
2023/04/24 11:54:38;;;;;;;1.00;0.80;;;;;;;;;;5085982;28;20807;-64
2023/04/24 11:57:06;;;;;;;1.27;0.90;;;;;;;;;;5087454;28;21024;-64
2023/04/24 11:59:37;;;;;;;1.97;1.20;;;;;;;;;;5086755;28;20458;-64
2023/04/24 12:02:04;;;;;;;1.77;1.57;;;;;;;;;;5087755;28;20450;-64
2023/04/24 12:04:40;;;;;;;2.30;2.10;;;;;;;;;;5086757;28;21029;-64
2023/04/24 12:07:08;;;;;;;3.37;3.07;;;;;;;;;;5082749;28;20441;-63
2023/04/24 12:09:46;;;;;;;1.50;1.40;;;;;;;;;;5086339;28;20479;-63
2023/04/24 12:12:14;;;;;;;1.30;1.20;;;;;;;;;;5086262;28;20440;-64
2023/04/24 12:14:44;;;;;;;1.53;0.97;;;;;;;;;;5087148;28;21033;-64
2023/04/24 12:17:11;;;;;;;0.80;0.80;;;;;;;;;;5083792;28;20500;-64
2023/04/24 12:19:38;;;;;;;1.80;1.20;;;;;;;;;;5083430;28;20856;-64
2023/04/24 12:22:06;;;;;;;1.37;1.00;;;;;;;;;;5084907;28;20917;-63
2023/04/24 12:24:34;;;;;;;1.33;0.70;;;;;;;;;;5082306;28;20472;-63
2023/04/24 12:27:02;;;;;;;3.07;0.77;;;;;;;;;;5074457;28;20930;-63
2023/04/24 12:29:29;;;;;;;1.10;0.80;;;;;;;;;;5074690;28;20487;-63
2023/04/24 12:31:56;;;;;;;2.83;0.90;;;;;;;;;;5084700;28;20537;-64
2023/04/24 12:34:24;;;;;;;0.97;0.87;;;;;;;;;;5085569;28;20795;-64
2023/04/24 12:36:51;;;;;;;1.20;1.10;;;;;;;;;;5083624;28;20943;-64
2023/04/24 12:39:19;;;;;;;0.83;0.80;;;;;;;;;;5084911;28;20436;-64
2023/04/24 12:41:53;;;;;;;2.40;1.03;;;;;;;;;;5085492;28;20809;-65
2023/04/24 12:44:21;;;;;;;0.97;0.80;;;;;;;;;;5084971;28;20447;-64
2023/04/24 12:46:48;;;;;;;1.83;0.60;;;;;;;;;;5083530;28;20452;-65
2023/04/24 12:49:15;;;;;;;0.90;0.80;;;;;;;;;;5084494;28;20563;-63
2023/04/24 12:51:42;;;;;;;1.43;0.80;;;;;;;;;;5086123;28;20525;-64
2023/04/24 12:54:10;;;;;;;0.80;0.80;;;;;;;;;;5083446;28;20649;-64
2023/04/24 12:56:39;;;;;;;5.43;0.83;;;;;;;;;;5084216;28;20440;-65
2023/04/24 12:59:06;;;;;;;0.80;0.70;;;;;;;;;;5083368;28;20618;-66
2023/04/24 13:01:34;;;;;;;3.40;1.00;;;;;;;;;;5085986;28;20450;-65
2023/04/24 13:04:01;;;;;;;2.90;0.90;;;;;;;;;;5088911;28;21009;-65
2023/04/24 13:06:28;;;;;;;0.90;0.80;;;;;;;;;;5093782;28;20443;-65
2023/04/24 13:08:57;;;;;;;1.13;0.80;;;;;;;;;;5093505;28;20488;-66
2023/04/24 13:11:24;;;;;;;1.27;0.77;;;;;;;;;;5093502;28;20447;-63
2023/04/24 13:13:51;;;;;;;2.20;0.90;;;;;;;;;;5093743;28;20814;-64
2023/04/24 13:16:18;;;;;;;0.90;0.90;;;;;;;;;;5093425;28;20530;-64
2023/04/24 13:18:47;;;;;;;1.60;0.77;;;;;;;;;;5093667;28;20941;-64
2023/04/24 13:21:14;;;;;;;2.80;1.30;;;;;;;;;;5093397;28;20547;-64
2023/04/24 13:23:41;;;;;;;1.60;0.90;;;;;;;;;;5093340;28;20460;-64
2023/04/24 13:26:08;;;;;;;1.10;1.00;;;;;;;;;;5093221;28;20446;-64
2023/04/24 13:28:35;;;;;;;1.73;0.80;;;;;;;;;;5093244;28;20478;-64
2023/04/24 13:31:02;;;;;;;1.87;0.80;;;;;;;;;;5093424;28;20489;-65
2023/04/24 13:33:29;;;;;;;1.10;0.77;;;;;;;;;;5093331;28;20445;-64
2023/04/24 13:35:57;;;;;;;1.03;0.90;;;;;;;;;;5093694;28;20529;-66
2023/04/24 13:38:24;;;;;;;1.77;0.87;;;;;;;;;;5093217;28;20984;-66
2023/04/24 13:40:51;;;;;;;0.70;0.70;;;;;;;;;;5093099;28;20453;-66
2023/04/24 13:43:18;;;;;;;3.10;1.00;;;;;;;;;;5092834;28;20872;-65
2023/04/24 13:45:45;;;;;;;2.08;1.05;;;;;;;;;;5087775;28;20455;-65
2023/04/24 13:48:13;;;;;;;3.83;1.73;;;;;;;;;;5082440;28;20615;-64
2023/04/24 13:50:40;;;;;;;0.90;0.90;;;;;;;;;;5078494;28;20527;-65
2023/04/24 13:53:08;;;;;;;1.33;0.83;;;;;;;;;;5071851;28;20448;-64
2023/04/24 13:55:35;;;;;;;2.60;0.90;;;;;;;;;;5071764;28;20545;-66
2023/04/24 13:58:02;;;;;;;0.93;0.73;;;;;;;;;;5072589;28;20448;-66
2023/04/24 14:00:29;;;;;;;2.43;0.80;;;;;;;;;;5072577;28;20448;-66
2023/04/24 14:02:56;;;;;;;0.90;0.73;;;;;;;;;;5072584;28;20459;-66
2023/04/24 14:05:23;;;;;;;1.83;0.80;;;;;;;;;;5072738;28;20461;-65
2023/04/24 14:07:50;;;;;;;0.73;0.73;;;;;;;;;;5072586;28;20823;-66
2023/04/24 14:10:19;;;;;;;0.80;0.70;;;;;;;;;;5072625;28;20475;-66
2023/04/24 14:12:46;;;;;;;2.50;1.03;;;;;;;;;;5072807;28;20448;-67
2023/04/24 14:15:13;;;;;;;2.53;1.00;;;;;;;;;;5083187;28;20530;-66
2023/04/24 14:17:40;;;;;;;1.37;0.80;;;;;;;;;;5092869;28;20798;-66
2023/04/24 14:20:08;;;;;;;1.27;0.70;;;;;;;;;;5092683;28;20542;-66
2023/04/24 14:22:35;;;;;;;1.03;0.93;;;;;;;;;;5093041;28;20460;-66
2023/04/24 14:25:03;;;;;;;1.10;1.00;;;;;;;;;;5092086;28;20457;-66
2023/04/24 14:27:31;;;;;;;3.07;0.80;;;;;;;;;;5072621;28;20452;-66
2023/04/24 14:29:58;;;;;;;0.80;0.80;;;;;;;;;;5072375;28;20480;-67
2023/04/24 14:32:25;;;;;;;1.70;0.80;;;;;;;;;;5072337;28;20866;-66
2023/04/24 14:34:52;;;;;;;2.63;1.57;;;;;;;;;;5072277;28;20797;-66
2023/04/24 14:37:19;;;;;;;1.10;1.00;;;;;;;;;;5071777;28;20454;-66
2023/04/24 14:39:46;;;;;;;1.30;1.00;;;;;;;;;;5072673;28;20785;-66
2023/04/24 14:42:13;;;;;;;1.20;1.10;;;;;;;;;;5072551;28;20822;-66
2023/04/24 14:44:41;;;;;;;0.80;0.80;;;;;;;;;;5072556;28;21058;-66
2023/04/24 14:47:08;;;;;;;1.00;0.90;;;;;;;;;;5072301;28;20448;-66